createdAt,value
2017-11-03T00:01:05.984Z,9.36
2017-11-03T00:03:33.606Z,9.34
2017-11-03T00:06:01.227Z,9.27
2017-11-03T00:08:28.801Z,9.26
2017-11-03T00:10:56.426Z,9.25
2017-11-03T00:13:23.996Z,9.22
2017-11-03T00:15:51.556Z,9.20
2017-11-03T00:18:19.174Z,9.14
2017-11-03T00:20:46.782Z,9.07
2017-11-03T00:23:14.909Z,9.10
2017-11-03T00:25:42.467Z,9.14
2017-11-03T00:28:10.087Z,9.14
2017-11-03T00:30:37.678Z,9.16
2017-11-03T00:33:05.385Z,9.25
2017-11-03T00:35:32.951Z,9.19
2017-11-03T00:38:00.564Z,9.17
2017-11-03T00:40:28.107Z,9.06
2017-11-03T00:42:55.670Z,9.03
2017-11-03T00:45:24.012Z,9.12
2017-11-03T00:47:51.618Z,9.17
2017-11-03T00:50:19.228Z,9.12
2017-11-03T00:52:46.815Z,9.06
2017-11-03T00:55:14.490Z,9.04
2017-11-03T00:57:42.281Z,9.09
2017-11-03T01:00:10.058Z,9.16
2017-11-03T01:02:37.683Z,9.19
2017-11-03T01:05:05.302Z,9.25
2017-11-03T01:07:32.961Z,9.36
2017-11-03T01:10:00.602Z,9.29
2017-11-03T01:12:28.165Z,9.36
2017-11-03T01:14:55.766Z,9.54
2017-11-03T01:17:23.383Z,9.57
2017-11-03T01:19:50.941Z,9.67
2017-11-03T01:22:18.538Z,9.59
2017-11-03T01:24:46.099Z,9.51
2017-11-03T01:27:13.824Z,9.57
2017-11-03T01:29:41.400Z,9.62
2017-11-03T01:32:09.123Z,9.62
2017-11-03T01:34:36.704Z,9.64
2017-11-03T01:37:04.326Z,9.62
2017-11-03T01:39:31.902Z,9.48
2017-11-03T01:41:59.480Z,9.45
2017-11-03T01:44:27.106Z,9.38
2017-11-03T01:46:54.678Z,9.41
2017-11-03T01:49:22.372Z,9.52
2017-11-03T01:51:50.034Z,9.51
2017-11-03T01:54:17.626Z,9.42
2017-11-03T01:56:45.213Z,9.43
2017-11-03T01:59:12.939Z,9.52
2017-11-03T02:01:40.500Z,9.55
2017-11-03T02:04:08.236Z,9.49
2017-11-03T02:06:35.832Z,9.46
2017-11-03T02:09:03.632Z,9.58
2017-11-03T02:11:31.393Z,9.45
2017-11-03T02:13:58.961Z,9.40
2017-11-03T02:16:26.517Z,9.41
2017-11-03T02:18:54.165Z,9.44
2017-11-03T02:21:21.765Z,9.48
2017-11-03T02:23:49.326Z,9.34
2017-11-03T02:26:16.990Z,9.20
2017-11-03T02:28:44.632Z,9.28
2017-11-03T02:31:12.334Z,9.45
2017-11-03T02:33:39.909Z,9.54
2017-11-03T02:36:07.637Z,9.52
2017-11-03T02:38:35.345Z,9.53
2017-11-03T02:41:02.925Z,9.45
2017-11-03T02:43:30.516Z,9.46
2017-11-03T02:45:58.160Z,9.45
2017-11-03T02:48:25.762Z,9.51
2017-11-03T02:50:53.349Z,9.49
2017-11-03T02:53:21.035Z,9.47
2017-11-03T02:55:48.585Z,9.36
2017-11-03T02:58:16.501Z,9.34
2017-11-03T03:00:44.543Z,9.36
2017-11-03T03:03:12.473Z,9.31
2017-11-03T03:05:40.028Z,9.32
2017-11-03T03:08:07.616Z,9.33
2017-11-03T03:10:35.188Z,9.33
2017-11-03T03:13:02.782Z,9.34
2017-11-03T03:15:30.532Z,9.25
2017-11-03T03:17:58.134Z,9.14
2017-11-03T03:20:25.826Z,9.26
2017-11-03T03:22:55.078Z,9.18
2017-11-03T03:25:22.738Z,9.00
2017-11-03T03:27:50.754Z,8.77
2017-11-03T03:30:18.339Z,8.55
2017-11-03T03:32:45.913Z,8.30
2017-11-03T03:35:13.743Z,8.22
2017-11-03T03:37:41.395Z,8.18
2017-11-03T03:40:08.949Z,8.16
2017-11-03T03:42:37.836Z,8.10
2017-11-03T03:45:05.490Z,7.75
2017-11-03T04:29:58.563Z,7.92
2017-11-03T04:32:26.191Z,7.92
2017-11-03T04:37:25.493Z,7.75
2017-11-03T04:39:53.137Z,7.77
2017-11-03T04:42:20.713Z,7.74
2017-11-03T04:44:48.276Z,7.72
2017-11-03T04:47:15.893Z,7.64
2017-11-03T04:49:43.473Z,7.66
2017-11-03T04:52:11.070Z,7.75
2017-11-03T04:54:38.683Z,7.74
2017-11-03T04:57:06.234Z,7.75
2017-11-03T04:59:33.793Z,7.82
2017-11-03T05:02:01.421Z,7.79
2017-11-03T05:04:29.008Z,7.78
2017-11-03T05:06:56.594Z,7.77
2017-11-03T05:09:24.175Z,7.89
2017-11-03T05:11:51.758Z,7.90
2017-11-03T05:14:19.327Z,7.90
2017-11-03T05:16:46.921Z,7.78
2017-11-03T05:19:14.477Z,7.80
2017-11-03T05:21:42.032Z,7.87
2017-11-03T05:24:09.613Z,7.73
2017-11-03T05:26:37.153Z,7.57
2017-11-03T05:29:04.713Z,7.45
2017-11-03T05:31:32.311Z,7.22
2017-11-03T05:33:59.890Z,7.11
2017-11-03T05:36:27.485Z,6.84
2017-11-03T05:38:55.093Z,6.60
2017-11-03T05:41:22.703Z,6.52
2017-11-03T05:43:50.261Z,6.46
2017-11-03T05:46:17.838Z,6.31
2017-11-03T05:48:45.410Z,6.25
2017-11-03T05:51:12.965Z,6.16
2017-11-03T05:53:40.562Z,6.14
2017-11-03T05:56:08.275Z,6.03
2017-11-03T05:58:36.504Z,5.98
2017-11-03T06:01:04.112Z,5.95
2017-11-03T06:03:32.101Z,5.98
2017-11-03T06:05:59.723Z,5.99
2017-11-03T06:08:27.641Z,6.05
2017-11-03T06:10:56.538Z,6.08
2017-11-03T06:13:25.604Z,6.09
2017-11-03T06:15:53.265Z,6.11
2017-11-03T06:18:20.894Z,6.10
2017-11-03T06:20:48.533Z,6.14
2017-11-03T06:23:16.103Z,6.14
2017-11-03T06:25:44.753Z,6.16
2017-11-03T06:28:12.395Z,6.16
2017-11-03T06:30:39.958Z,6.18
2017-11-03T06:33:07.511Z,6.16
2017-11-03T06:35:35.085Z,6.18
2017-11-03T06:38:02.632Z,6.19
2017-11-03T06:40:30.226Z,6.23
2017-11-03T06:42:57.835Z,6.40
2017-11-03T06:45:25.402Z,6.60
2017-11-03T06:47:52.982Z,6.86
2017-11-03T06:50:20.588Z,7.11
2017-11-03T06:52:48.198Z,7.34
2017-11-03T06:55:15.818Z,7.39
2017-11-03T06:57:43.406Z,7.39
2017-11-03T07:00:11.014Z,7.61
2017-11-03T07:02:38.599Z,7.70
2017-11-03T07:05:06.167Z,7.70
2017-11-03T07:07:33.745Z,7.59
2017-11-03T07:10:01.323Z,7.19
2017-11-03T07:12:28.912Z,6.93
2017-11-03T07:14:56.499Z,6.74
2017-11-03T07:17:24.083Z,6.82
2017-11-03T07:19:51.684Z,6.94
2017-11-03T07:22:19.244Z,7.00
2017-11-03T07:24:46.843Z,7.03
2017-11-03T07:27:14.448Z,6.90
2017-11-03T07:29:42.011Z,6.81
2017-11-03T07:32:09.577Z,6.79
2017-11-03T07:34:37.173Z,6.87
2017-11-03T07:37:04.754Z,6.90
2017-11-03T07:39:32.330Z,6.92
2017-11-03T07:41:59.897Z,6.97
2017-11-03T07:44:27.458Z,7.06
2017-11-03T07:46:55.065Z,7.29
2017-11-03T07:49:22.654Z,7.61
2017-11-03T07:51:50.222Z,7.99
2017-11-03T07:54:17.797Z,8.54
2017-11-03T07:56:45.350Z,8.92
2017-11-03T07:59:12.932Z,9.23
2017-11-03T08:01:40.539Z,9.18
2017-11-03T08:04:08.127Z,9.49
2017-11-03T08:06:35.701Z,9.48
2017-11-03T08:09:03.527Z,9.47
2017-11-03T08:11:31.080Z,9.62
2017-11-03T08:13:58.717Z,9.67
2017-11-03T08:16:26.361Z,9.71
2017-11-03T08:18:53.918Z,9.90
2017-11-03T08:21:21.519Z,10.44
2017-11-03T08:23:49.134Z,10.78
2017-11-03T08:26:16.718Z,10.95
2017-11-03T08:28:44.298Z,10.70
2017-11-03T08:31:11.940Z,10.62
2017-11-03T08:33:39.569Z,10.74
2017-11-03T08:36:07.155Z,10.66
2017-11-03T08:38:34.761Z,10.69
2017-11-03T08:41:02.335Z,10.71
2017-11-03T08:43:29.895Z,10.86
2017-11-03T08:45:57.478Z,10.78
2017-11-03T08:48:25.073Z,10.74
2017-11-03T08:50:52.642Z,10.74
2017-11-03T08:53:20.228Z,10.66
2017-11-03T08:55:47.813Z,10.66
2017-11-03T08:58:15.397Z,10.58
2017-11-03T09:00:43.008Z,10.57
2017-11-03T09:03:10.603Z,10.70
2017-11-03T09:05:38.202Z,10.84
2017-11-03T09:08:05.775Z,11.07
2017-11-03T09:10:33.406Z,11.14
2017-11-03T09:13:00.986Z,11.34
2017-11-03T09:15:28.556Z,11.56
2017-11-03T09:17:56.142Z,11.68
2017-11-03T09:20:23.796Z,11.79
2017-11-03T09:22:51.359Z,11.80
2017-11-03T09:25:19.007Z,11.77
2017-11-03T09:27:46.571Z,12.05
2017-11-03T09:30:14.137Z,12.12
2017-11-03T09:32:41.729Z,12.37
2017-11-03T09:35:09.293Z,12.73
2017-11-03T09:37:36.866Z,12.85
2017-11-03T09:40:04.447Z,12.84
2017-11-03T09:42:32.010Z,12.50
2017-11-03T09:45:02.322Z,12.20
2017-11-03T09:47:30.117Z,12.19
2017-11-03T09:49:57.671Z,12.18
2017-11-03T09:52:25.232Z,12.34
2017-11-03T09:54:52.833Z,12.40
2017-11-03T09:57:20.402Z,12.69
2017-11-03T09:59:47.973Z,12.63
2017-11-03T10:02:15.623Z,12.67
2017-11-03T10:04:43.196Z,12.68
2017-11-03T10:07:10.739Z,12.69
2017-11-03T10:09:38.368Z,12.65
2017-11-03T10:12:05.958Z,12.61
2017-11-03T10:14:35.923Z,12.63
2017-11-03T10:17:03.520Z,12.54
2017-11-03T10:19:31.090Z,12.24
2017-11-03T10:21:58.662Z,12.24
2017-11-03T10:24:26.272Z,12.17
2017-11-03T10:26:53.855Z,12.54
2017-11-03T10:29:21.451Z,12.50
2017-11-03T10:31:49.033Z,12.62
2017-11-03T10:34:17.495Z,12.73
2017-11-03T10:36:45.237Z,12.61
2017-11-03T10:39:12.875Z,12.86
2017-11-03T10:41:40.479Z,13.06
2017-11-03T10:44:08.033Z,13.17
2017-11-03T10:46:35.696Z,13.15
2017-11-03T10:49:03.290Z,13.06
2017-11-03T10:51:35.371Z,12.94
2017-11-03T10:54:03.011Z,12.79
2017-11-03T10:56:30.614Z,12.66
2017-11-03T10:58:58.597Z,12.64
2017-11-03T11:01:26.740Z,13.04
2017-11-03T11:03:54.960Z,13.40
2017-11-03T11:06:22.550Z,13.20
2017-11-03T11:08:50.151Z,13.17
2017-11-03T11:11:17.747Z,13.34
2017-11-03T11:13:45.336Z,13.87
2017-11-03T11:16:13.151Z,13.92
2017-11-03T11:18:40.737Z,13.91
2017-11-03T11:21:08.813Z,13.44
2017-11-03T11:23:36.455Z,13.77
2017-11-03T11:26:04.030Z,13.21
2017-11-03T11:28:31.644Z,13.24
2017-11-03T11:30:59.242Z,13.00
2017-11-03T11:33:26.845Z,12.87
2017-11-03T11:35:54.422Z,12.79
2017-11-03T11:38:22.043Z,12.75
2017-11-03T11:40:49.632Z,13.14
2017-11-03T11:43:17.210Z,13.42
2017-11-03T11:45:44.828Z,13.18
2017-11-03T11:48:12.420Z,13.07
2017-11-03T11:50:40.060Z,13.25
2017-11-03T11:53:07.710Z,12.97
2017-11-03T11:55:35.366Z,12.86
2017-11-03T11:58:03.017Z,12.93
2017-11-03T12:00:30.676Z,13.23
2017-11-03T12:02:58.253Z,13.56
2017-11-03T12:05:25.859Z,13.69
2017-11-03T12:07:53.531Z,13.88
2017-11-03T12:10:21.228Z,13.47
2017-11-03T12:12:48.853Z,13.44
2017-11-03T12:15:16.485Z,13.69
2017-11-03T12:17:44.088Z,13.90
2017-11-03T12:20:11.680Z,13.76
2017-11-03T12:22:39.281Z,13.69
2017-11-03T12:25:06.889Z,13.87
2017-11-03T12:27:34.489Z,13.49
2017-11-03T12:30:02.094Z,13.31
2017-11-03T12:32:29.687Z,13.56
2017-11-03T12:34:57.276Z,13.32
2017-11-03T12:37:24.870Z,13.51
2017-11-03T12:39:52.486Z,13.18
2017-11-03T12:42:20.092Z,12.86
2017-11-03T12:44:47.668Z,12.89
2017-11-03T12:47:15.301Z,12.82
2017-11-03T12:49:42.881Z,12.65
2017-11-03T12:52:10.469Z,12.48
2017-11-03T12:54:38.087Z,12.44
2017-11-03T12:57:05.654Z,12.56
2017-11-03T12:59:33.242Z,12.96
2017-11-03T13:02:00.898Z,13.99
2017-11-03T13:04:28.476Z,14.46
2017-11-03T13:06:56.071Z,14.83
2017-11-03T13:09:23.754Z,14.32
2017-11-03T13:11:51.338Z,13.48
2017-11-03T13:14:18.934Z,13.29
2017-11-03T13:16:46.942Z,13.17
2017-11-03T13:19:14.494Z,13.19
2017-11-03T13:21:42.118Z,13.06
2017-11-03T13:24:09.745Z,12.86
2017-11-03T13:26:37.394Z,12.92
2017-11-03T13:29:05.005Z,13.49
2017-11-03T13:31:32.586Z,13.95
2017-11-03T13:34:00.163Z,14.01
2017-11-03T13:36:27.795Z,13.65
2017-11-03T13:38:55.408Z,13.45
2017-11-03T13:41:23.019Z,13.31
2017-11-03T13:43:50.647Z,13.17
2017-11-03T13:46:18.554Z,13.17
2017-11-03T13:48:46.170Z,13.31
2017-11-03T13:51:13.757Z,13.37
2017-11-03T13:53:41.412Z,14.36
2017-11-03T13:56:09.027Z,15.46
2017-11-03T13:58:36.653Z,16.19
2017-11-03T14:01:04.294Z,16.54
2017-11-03T14:03:31.866Z,17.02
2017-11-03T14:05:59.519Z,17.31
2017-11-03T14:08:27.167Z,16.64
2017-11-03T14:10:54.755Z,16.18
2017-11-03T14:13:22.378Z,15.59
2017-11-03T14:15:49.978Z,14.99
2017-11-03T14:18:17.622Z,14.51
2017-11-03T14:20:45.253Z,14.12
2017-11-03T14:23:13.108Z,14.31
2017-11-03T14:25:40.772Z,14.16
2017-11-03T14:28:08.467Z,14.20
2017-11-03T14:30:36.107Z,13.90
2017-11-03T14:33:03.723Z,13.58
2017-11-03T14:35:31.293Z,13.30
2017-11-03T14:37:58.904Z,13.05
2017-11-03T14:40:26.536Z,12.79
2017-11-03T14:42:54.138Z,12.72
2017-11-03T14:45:21.758Z,12.55
2017-11-03T14:47:49.334Z,12.28
2017-11-03T14:50:16.882Z,12.06
2017-11-03T14:52:44.469Z,11.66
2017-11-03T14:55:12.054Z,11.41
2017-11-03T14:57:40.415Z,10.93
2017-11-03T15:00:08.041Z,10.59
2017-11-03T15:02:35.622Z,10.05
2017-11-03T15:05:03.202Z,9.73
2017-11-03T15:07:30.775Z,9.44
2017-11-03T15:09:58.329Z,9.24
2017-11-03T15:12:25.936Z,9.03
2017-11-03T15:14:53.492Z,8.99
2017-11-03T15:17:21.132Z,8.87
2017-11-03T15:19:48.756Z,8.86
2017-11-03T15:22:17.192Z,8.67
2017-11-03T15:24:44.778Z,8.50
2017-11-03T15:27:12.403Z,8.30
2017-11-03T15:29:39.970Z,8.16
2017-11-03T15:32:07.544Z,8.07
2017-11-03T15:34:35.167Z,8.07
2017-11-03T15:37:02.779Z,7.96
2017-11-03T15:39:30.376Z,7.84
2017-11-03T15:41:57.931Z,7.78
2017-11-03T15:44:25.493Z,7.65
2017-11-03T15:46:53.115Z,7.58
2017-11-03T15:49:20.717Z,7.53
2017-11-03T15:51:48.293Z,7.45
2017-11-03T15:54:15.911Z,7.37
2017-11-03T15:56:43.481Z,7.21
2017-11-03T15:59:11.058Z,7.08
2017-11-03T16:01:38.653Z,6.95
2017-11-03T16:04:06.212Z,6.82
2017-11-03T16:06:33.809Z,6.69
2017-11-03T16:09:01.461Z,6.58
2017-11-03T16:11:29.060Z,6.49
2017-11-03T16:13:56.633Z,6.46
2017-11-03T16:16:24.258Z,6.44
2017-11-03T16:18:51.825Z,6.43
2017-11-03T16:21:19.490Z,6.40
2017-11-03T16:23:47.078Z,6.35
2017-11-03T16:26:14.640Z,6.23
2017-11-03T16:28:42.259Z,6.26
2017-11-03T16:31:09.847Z,6.25
2017-11-03T16:33:37.424Z,6.29
2017-11-03T16:36:05.361Z,6.16
2017-11-03T16:38:32.937Z,6.32
2017-11-03T16:41:00.523Z,6.30
2017-11-03T16:43:28.403Z,6.25
2017-11-03T16:45:56.001Z,6.12
2017-11-03T16:48:23.606Z,6.07
2017-11-03T16:50:51.217Z,6.13
2017-11-03T16:53:18.839Z,6.05
2017-11-03T16:55:46.448Z,6.04
2017-11-03T16:58:14.084Z,6.01
2017-11-03T17:00:41.708Z,5.96
2017-11-03T17:03:09.298Z,5.93
2017-11-03T17:05:36.923Z,5.85
2017-11-03T17:08:04.523Z,5.79
2017-11-03T17:10:32.178Z,5.71
2017-11-03T17:12:59.815Z,5.58
2017-11-03T17:15:27.799Z,5.43
2017-11-03T17:17:55.568Z,5.30
2017-11-03T17:20:23.253Z,5.28
2017-11-03T17:22:50.859Z,5.27
2017-11-03T17:25:18.579Z,5.23
2017-11-03T17:27:46.166Z,5.16
2017-11-03T17:30:13.803Z,5.10
2017-11-03T17:32:41.507Z,5.01
2017-11-03T17:35:09.149Z,4.97
2017-11-03T17:37:36.806Z,4.96
2017-11-03T17:40:04.466Z,4.96
2017-11-03T17:42:32.116Z,5.02
2017-11-03T17:44:59.924Z,5.05
2017-11-03T17:47:27.622Z,5.13
2017-11-03T17:49:55.273Z,5.12
2017-11-03T17:52:22.852Z,5.06
2017-11-03T17:54:50.451Z,5.01
2017-11-03T17:57:18.123Z,4.96
2017-11-03T17:59:45.708Z,4.87
2017-11-03T18:02:13.271Z,4.79
2017-11-03T18:04:40.981Z,4.80
2017-11-03T18:07:08.669Z,4.77
2017-11-03T18:09:36.296Z,4.70
2017-11-03T18:12:04.284Z,4.64
2017-11-03T18:14:31.874Z,4.59
2017-11-03T18:16:59.473Z,4.56
2017-11-03T18:19:27.225Z,4.57
2017-11-03T18:21:54.812Z,4.54
2017-11-03T18:24:22.421Z,4.47
2017-11-03T18:26:50.066Z,4.52
2017-11-03T18:29:17.719Z,4.37
2017-11-03T18:31:45.310Z,4.26
2017-11-03T18:34:12.899Z,4.23
2017-11-03T18:36:40.518Z,4.18
2017-11-03T18:39:08.156Z,4.17
2017-11-03T18:41:35.825Z,4.08
2017-11-03T18:44:03.429Z,4.08
2017-11-03T18:46:31.047Z,4.00
2017-11-03T18:48:58.615Z,3.93
2017-11-03T18:51:26.218Z,3.80
2017-11-03T18:53:54.351Z,3.74
2017-11-03T18:56:21.949Z,3.69
2017-11-03T18:58:49.570Z,3.62
2017-11-03T19:01:17.137Z,3.61
2017-11-03T19:03:44.687Z,3.58
2017-11-03T19:06:12.321Z,3.61
2017-11-03T19:08:39.940Z,3.56
2017-11-03T19:11:07.557Z,3.56
2017-11-03T19:13:35.197Z,3.54
2017-11-03T19:16:02.793Z,3.50
2017-11-03T19:18:30.387Z,3.50
2017-11-03T19:20:58.040Z,3.52
2017-11-03T19:23:25.645Z,3.49
2017-11-03T19:25:53.269Z,3.45
2017-11-03T19:28:20.854Z,3.40
2017-11-03T19:30:48.819Z,3.30
2017-11-03T19:33:16.441Z,3.29
2017-11-03T19:35:44.095Z,3.23
2017-11-03T19:38:11.677Z,3.23
2017-11-03T19:40:39.277Z,3.22
2017-11-03T19:43:06.936Z,3.27
2017-11-03T19:45:34.531Z,3.33
2017-11-03T19:48:02.095Z,3.38
2017-11-03T19:50:29.745Z,3.36
2017-11-03T19:52:57.348Z,3.27
2017-11-03T19:55:24.915Z,3.17
2017-11-03T19:57:52.547Z,3.08
2017-11-03T20:00:20.107Z,3.11
2017-11-03T20:02:47.685Z,3.13
2017-11-03T20:05:15.295Z,3.18
2017-11-03T20:07:42.913Z,3.15
2017-11-03T20:10:10.512Z,3.11
2017-11-03T20:12:38.388Z,3.07
2017-11-03T20:15:05.992Z,3.06
2017-11-03T20:17:33.582Z,3.02
2017-11-03T20:20:01.178Z,3.00
2017-11-03T20:22:28.744Z,2.97
2017-11-03T20:24:56.298Z,3.00
2017-11-03T20:27:23.922Z,2.91
2017-11-03T20:29:51.494Z,2.87
2017-11-03T20:32:19.066Z,2.82
2017-11-03T20:34:46.665Z,2.80
2017-11-03T20:37:14.247Z,2.75
2017-11-03T20:39:41.880Z,2.71
2017-11-03T20:42:09.585Z,2.72
2017-11-03T20:44:37.347Z,2.74
2017-11-03T20:47:04.958Z,2.79
2017-11-03T20:49:32.557Z,2.85
2017-11-03T20:52:00.149Z,2.88
2017-11-03T20:54:27.794Z,2.90
2017-11-03T20:56:59.315Z,2.90
2017-11-03T20:59:26.894Z,2.86
2017-11-03T21:01:54.557Z,2.82
2017-11-03T21:04:23.104Z,2.81
2017-11-03T21:06:50.719Z,2.83
2017-11-03T21:09:18.309Z,2.84
2017-11-03T21:11:45.972Z,2.87
2017-11-03T21:14:13.605Z,2.81
2017-11-03T21:16:41.214Z,2.86
2017-11-03T21:19:08.789Z,2.85
2017-11-03T21:21:36.465Z,2.78
2017-11-03T21:24:04.039Z,2.75
2017-11-03T21:26:32.398Z,2.73
2017-11-03T21:28:59.999Z,2.68
2017-11-03T21:31:27.565Z,2.63
2017-11-03T21:33:55.139Z,2.62
2017-11-03T21:36:22.723Z,2.62
2017-11-03T21:38:50.295Z,2.65
2017-11-03T21:41:17.857Z,2.65
2017-11-03T21:43:45.455Z,2.61
2017-11-03T21:46:13.021Z,2.55
2017-11-03T21:48:40.618Z,2.48
2017-11-03T21:51:08.209Z,2.44
2017-11-03T21:53:35.832Z,2.46
2017-11-03T21:56:03.857Z,2.52
2017-11-03T21:58:31.463Z,2.50
2017-11-03T22:01:00.357Z,2.41
2017-11-03T22:03:28.028Z,2.40
2017-11-03T22:05:55.701Z,2.36
2017-11-03T22:08:23.345Z,2.38
2017-11-03T22:10:50.931Z,2.38
2017-11-03T22:13:19.733Z,2.42
2017-11-03T22:15:47.403Z,2.36
2017-11-03T22:18:14.982Z,2.38
2017-11-03T22:20:42.604Z,2.30
2017-11-03T22:23:10.206Z,2.33
2017-11-03T22:25:37.789Z,2.31
2017-11-03T22:28:05.384Z,2.42
2017-11-03T22:30:32.980Z,2.49
2017-11-03T22:33:00.555Z,2.39
2017-11-03T22:35:28.177Z,2.38
2017-11-03T22:37:55.721Z,2.27
2017-11-03T22:40:23.276Z,2.16
2017-11-03T22:42:50.910Z,2.08
2017-11-03T22:45:18.581Z,1.97
2017-11-03T22:47:46.136Z,1.87
2017-11-03T22:50:13.719Z,1.85
2017-11-03T22:52:41.334Z,1.92
2017-11-03T22:55:08.878Z,2.02
2017-11-03T22:57:36.501Z,2.13
2017-11-03T23:00:04.195Z,2.18
2017-11-03T23:02:32.675Z,2.22
2017-11-03T23:05:00.269Z,2.21
2017-11-03T23:07:27.843Z,2.18
2017-11-03T23:09:55.408Z,2.11
2017-11-03T23:12:23.007Z,2.09
2017-11-03T23:14:50.578Z,2.05
2017-11-03T23:17:18.162Z,1.97
2017-11-03T23:19:45.772Z,1.94
2017-11-03T23:22:13.366Z,2.00
2017-11-03T23:24:41.022Z,2.01
2017-11-03T23:27:08.610Z,2.01
2017-11-03T23:29:36.178Z,1.96
2017-11-03T23:32:03.759Z,1.91
2017-11-03T23:34:31.419Z,1.83
2017-11-03T23:36:59.020Z,1.76
2017-11-03T23:39:26.590Z,1.76
2017-11-03T23:41:54.185Z,1.69
2017-11-03T23:44:21.758Z,1.60
2017-11-03T23:46:49.374Z,1.58
2017-11-03T23:49:17.005Z,1.46
2017-11-03T23:51:44.591Z,1.41
2017-11-03T23:54:12.166Z,1.38
2017-11-03T23:56:39.742Z,1.36
2017-11-03T23:59:07.312Z,1.44
